createdAt,value
2018-04-30T00:03:24.588Z,7.37
2018-04-30T00:08:28.328Z,5.90
2018-04-30T00:13:32.105Z,5.07
2018-04-30T00:18:34.957Z,4.40
2018-04-30T00:23:37.762Z,3.75
2018-04-30T00:28:40.549Z,4.45
2018-04-30T00:33:43.434Z,3.45
2018-04-30T00:38:46.192Z,3.33
2018-04-30T00:43:49.013Z,3.00
2018-04-30T00:48:52.120Z,3.00
2018-04-30T00:53:54.986Z,2.80
2018-04-30T00:58:58.793Z,3.12
2018-04-30T01:04:01.600Z,2.80
2018-04-30T01:09:04.569Z,2.40
2018-04-30T01:14:08.273Z,2.20
2018-04-30T01:19:11.202Z,2.00
2018-04-30T01:24:14.381Z,2.07
2018-04-30T01:29:18.286Z,2.00
2018-04-30T01:34:21.325Z,1.60
2018-04-30T01:39:24.984Z,1.80
2018-04-30T01:44:27.895Z,1.70
2018-04-30T01:49:30.926Z,1.70
2018-04-30T01:54:34.161Z,1.50
2018-04-30T01:59:37.219Z,1.50
2018-04-30T02:04:40.143Z,1.50
2018-04-30T02:09:43.262Z,2.00
2018-04-30T02:14:50.349Z,1.65
2018-04-30T02:19:53.231Z,1.80
2018-04-30T02:24:56.314Z,1.75
2018-04-30T02:30:07.180Z,1.30
2018-04-30T02:35:10.227Z,1.50
2018-04-30T02:40:13.301Z,1.60
2018-04-30T02:45:16.122Z,1.80
2018-04-30T02:50:19.115Z,1.25
2018-04-30T02:55:22.938Z,1.50
2018-04-30T03:00:27.615Z,1.17
2018-04-30T03:05:30.760Z,1.40
2018-04-30T03:10:34.993Z,1.35
2018-04-30T03:15:37.870Z,1.00
2018-04-30T03:20:40.884Z,1.30
2018-04-30T03:25:43.814Z,1.17
2018-04-30T03:30:47.568Z,1.10
2018-04-30T03:35:50.620Z,1.00
2018-04-30T03:40:53.611Z,1.10
2018-04-30T03:45:56.971Z,0.90
2018-04-30T03:51:01.311Z,1.10
2018-04-30T03:56:04.312Z,0.90
2018-04-30T04:01:20.245Z,0.93
2018-04-30T04:06:37.519Z,0.88
2018-04-30T04:11:42.044Z,0.90
2018-04-30T04:16:46.812Z,1.30
2018-04-30T04:21:50.974Z,1.00
2018-04-30T04:26:58.490Z,1.02
2018-04-30T04:32:01.435Z,0.90
2018-04-30T04:37:10.102Z,0.93
2018-04-30T04:42:13.318Z,1.10
2018-04-30T04:47:16.200Z,0.90
2018-04-30T04:52:19.035Z,1.10
2018-04-30T04:57:22.704Z,0.90
2018-04-30T05:02:25.606Z,0.90
2018-04-30T05:07:28.486Z,0.90
2018-04-30T05:12:31.404Z,1.12
2018-04-30T05:17:36.919Z,0.90
2018-04-30T05:22:40.605Z,0.82
2018-04-30T05:27:45.153Z,0.90
2018-04-30T05:32:49.577Z,0.80
2018-04-30T05:37:54.535Z,0.90
2018-04-30T05:42:57.550Z,0.80
2018-04-30T05:48:00.864Z,0.80
2018-04-30T05:53:04.255Z,1.00
2018-04-30T05:58:08.509Z,0.85
2018-04-30T06:03:11.724Z,0.90
2018-04-30T06:08:15.667Z,0.80
2018-04-30T06:13:21.674Z,0.90
2018-04-30T06:18:24.648Z,0.80
2018-04-30T06:23:28.625Z,1.00
2018-04-30T06:28:32.212Z,1.25
2018-04-30T06:33:35.253Z,0.90
2018-04-30T06:38:39.045Z,1.13
2018-04-30T06:49:17.275Z,1.00
2018-04-30T06:54:21.063Z,1.00
2018-04-30T06:59:23.979Z,1.20
2018-04-30T07:04:26.828Z,1.08
2018-04-30T07:09:29.739Z,1.50
2018-04-30T07:14:32.560Z,1.15
2018-04-30T07:19:35.716Z,1.30
2018-04-30T07:24:39.332Z,1.20
2018-04-30T07:29:42.914Z,1.30
2018-04-30T07:40:24.345Z,1.20
2018-04-30T07:45:27.140Z,1.37
2018-04-30T07:50:30.279Z,1.20
2018-04-30T07:55:33.074Z,1.20
2018-04-30T08:00:36.626Z,1.40
2018-04-30T08:05:39.439Z,1.20
2018-04-30T08:10:42.765Z,1.40
2018-04-30T08:15:45.796Z,1.30
2018-04-30T08:20:50.185Z,1.33
2018-04-30T08:31:31.453Z,1.20
2018-04-30T08:36:34.340Z,1.30
2018-04-30T08:41:37.636Z,1.33
2018-04-30T08:46:40.543Z,1.20
2018-04-30T08:51:43.417Z,1.20
2018-04-30T08:56:46.269Z,1.60
2018-04-30T09:01:49.351Z,1.30
2018-04-30T09:06:52.390Z,1.40
2018-04-30T09:11:56.020Z,1.20
2018-04-30T09:17:00.156Z,1.40
2018-04-30T09:22:03.042Z,1.30
2018-04-30T09:27:06.660Z,1.20
2018-04-30T09:32:09.614Z,1.40
2018-04-30T09:37:12.563Z,1.27
2018-04-30T09:42:16.305Z,1.10
2018-04-30T09:47:19.666Z,1.10
2018-04-30T09:52:22.620Z,1.10
2018-04-30T09:57:25.522Z,1.00
2018-04-30T10:02:28.416Z,1.00
2018-04-30T10:07:39.543Z,1.30
2018-04-30T10:12:46.225Z,1.10
2018-04-30T10:17:49.130Z,1.20
2018-04-30T10:22:59.131Z,1.10
2018-04-30T10:28:03.541Z,1.10
2018-04-30T10:33:15.529Z,1.05
2018-04-30T10:38:26.014Z,1.00
2018-04-30T10:43:29.649Z,1.02
2018-04-30T10:48:33.767Z,1.17
2018-04-30T10:53:36.710Z,1.00
2018-04-30T10:58:46.506Z,1.10
2018-04-30T11:03:50.285Z,1.30
2018-04-30T11:08:54.637Z,1.10
2018-04-30T11:19:13.717Z,1.10
2018-04-30T11:24:16.619Z,1.10
2018-04-30T11:29:22.000Z,1.00
2018-04-30T11:34:24.967Z,1.10
2018-04-30T11:39:27.928Z,1.00
2018-04-30T11:44:33.166Z,1.00
2018-04-30T11:49:36.440Z,0.93
2018-04-30T11:54:40.228Z,1.30
2018-04-30T11:59:43.126Z,0.90
2018-04-30T12:04:46.196Z,1.40
2018-04-30T12:09:49.900Z,0.80
2018-04-30T12:14:53.140Z,1.00
2018-04-30T12:19:55.999Z,0.90
2018-04-30T12:24:59.048Z,1.10
2018-04-30T12:30:03.229Z,1.20
2018-04-30T12:35:06.305Z,0.80
2018-04-30T12:40:09.190Z,1.00
2018-04-30T12:45:12.776Z,1.00
2018-04-30T12:50:16.104Z,1.00
2018-04-30T12:55:19.723Z,1.10
2018-04-30T13:00:22.623Z,1.05
2018-04-30T13:05:26.305Z,1.30
2018-04-30T13:10:29.679Z,1.10
2018-04-30T13:15:32.771Z,1.00
2018-04-30T13:25:43.310Z,1.50
2018-04-30T13:30:46.295Z,1.37
2018-04-30T13:35:49.266Z,1.70
2018-04-30T13:40:52.109Z,1.37
2018-04-30T13:45:55.795Z,1.23
2018-04-30T13:50:58.901Z,1.20
2018-04-30T13:56:02.467Z,1.30
2018-04-30T14:01:05.304Z,1.10
2018-04-30T14:06:08.165Z,1.20
2018-04-30T14:11:12.104Z,1.10
2018-04-30T14:16:15.070Z,1.10
2018-04-30T14:21:17.896Z,1.00
2018-04-30T14:26:20.727Z,0.90
2018-04-30T14:31:23.908Z,1.17
2018-04-30T14:36:26.723Z,1.00
2018-04-30T14:41:29.639Z,1.00
2018-04-30T14:46:34.561Z,1.10
2018-04-30T14:51:37.510Z,1.30
2018-04-30T14:56:40.448Z,1.20
2018-04-30T15:01:43.238Z,1.20
2018-04-30T15:06:46.853Z,1.30
2018-04-30T15:11:49.805Z,1.12
2018-04-30T15:16:52.640Z,1.20
2018-04-30T15:21:55.970Z,1.10
2018-04-30T15:26:59.073Z,1.30
2018-04-30T15:32:02.104Z,1.10
2018-04-30T15:37:04.946Z,1.20
2018-04-30T15:42:07.908Z,1.20
2018-04-30T15:47:11.211Z,1.10
2018-04-30T15:52:14.788Z,1.30
2018-04-30T15:57:17.636Z,1.00
2018-04-30T16:02:21.355Z,1.10
2018-04-30T16:07:25.022Z,1.10
2018-04-30T16:12:27.887Z,0.98
2018-04-30T16:17:30.674Z,1.10
2018-04-30T16:22:34.298Z,1.10
2018-04-30T16:27:38.064Z,1.10
2018-04-30T16:32:40.889Z,1.10
2018-04-30T16:37:43.875Z,1.10
2018-04-30T16:42:47.090Z,1.20
2018-04-30T16:47:50.843Z,1.30
2018-04-30T16:52:54.537Z,1.30
2018-04-30T16:57:57.364Z,1.37
2018-04-30T17:03:01.002Z,1.20
2018-04-30T17:08:03.860Z,1.10
2018-04-30T17:13:06.800Z,1.20
2018-04-30T17:18:09.623Z,1.00
2018-04-30T17:23:12.481Z,1.20
2018-04-30T17:28:16.083Z,1.10
2018-04-30T17:33:18.982Z,1.00
2018-04-30T17:38:21.931Z,1.12
2018-04-30T17:43:24.862Z,1.00
2018-04-30T17:48:27.756Z,1.00
2018-04-30T17:53:32.544Z,1.00
2018-04-30T17:58:35.504Z,1.10
2018-04-30T18:03:38.310Z,1.30
2018-04-30T18:08:41.233Z,1.00
2018-04-30T18:13:44.145Z,1.40
2018-04-30T18:18:47.347Z,1.20
2018-04-30T18:23:52.197Z,1.37
2018-04-30T18:28:55.175Z,1.10
2018-04-30T18:33:58.079Z,1.00
2018-04-30T18:39:01.084Z,1.00
2018-04-30T18:44:04.739Z,1.00
2018-04-30T18:49:08.633Z,1.07
2018-04-30T18:54:13.366Z,0.90
2018-04-30T18:59:22.452Z,0.80
2018-04-30T19:04:26.775Z,1.00
2018-04-30T19:09:29.730Z,0.85
2018-04-30T19:14:33.051Z,0.80
2018-04-30T19:19:35.971Z,1.08
2018-04-30T19:24:38.936Z,0.88
2018-04-30T19:29:42.040Z,0.80
2018-04-30T19:34:46.079Z,0.90
2018-04-30T20:30:24.346Z,1.10
2018-04-30T20:35:27.230Z,1.00
2018-04-30T20:40:30.446Z,1.00
2018-04-30T20:45:33.609Z,1.10
2018-04-30T20:50:36.537Z,1.00
2018-04-30T20:55:41.194Z,0.90
2018-04-30T21:00:45.986Z,1.00
2018-04-30T21:05:48.856Z,1.17
2018-04-30T21:10:53.234Z,1.00
2018-04-30T21:15:56.080Z,0.98
2018-04-30T21:20:58.904Z,1.00
2018-04-30T21:26:01.701Z,0.90
2018-04-30T21:31:04.579Z,0.93
2018-04-30T21:36:07.407Z,0.80
2018-04-30T21:41:10.213Z,1.00
2018-04-30T21:46:13.136Z,1.00
2018-04-30T21:51:15.892Z,1.00
2018-04-30T21:56:19.867Z,1.00
2018-04-30T22:01:24.784Z,0.80
2018-04-30T22:06:39.970Z,1.10
2018-04-30T22:11:43.948Z,0.90
2018-04-30T22:16:47.655Z,1.02
2018-04-30T22:21:51.522Z,1.00
2018-04-30T22:26:56.999Z,1.10
2018-04-30T22:31:59.802Z,1.10
2018-04-30T22:37:02.623Z,1.00
2018-04-30T22:42:05.409Z,1.20
2018-04-30T22:47:08.206Z,1.40
2018-04-30T22:52:12.929Z,1.00
2018-04-30T22:57:18.295Z,1.20
2018-04-30T23:02:21.932Z,1.00
2018-04-30T23:07:28.880Z,1.10
2018-04-30T23:12:34.212Z,1.00
2018-04-30T23:17:38.837Z,1.20
2018-04-30T23:22:43.905Z,1.20
2018-04-30T23:27:48.545Z,1.20
2018-04-30T23:32:52.829Z,1.20
2018-04-30T23:37:55.631Z,1.20
2018-04-30T23:42:59.686Z,1.20
2018-04-30T23:48:03.617Z,1.30
2018-04-30T23:53:07.132Z,1.30
2018-04-30T23:58:10.601Z,1.20
